sensor_id;sensor_type;location;lat;lon;timestamp;temperature;humidity
11615;DHT22;5863;52.832;4.758;2023-05-25T00:01:12;13.10;99.90
11615;DHT22;5863;52.832;4.758;2023-05-25T00:03:40;13.10;99.90
11615;DHT22;5863;52.832;4.758;2023-05-25T00:06:08;13.00;99.90
11615;DHT22;5863;52.832;4.758;2023-05-25T00:08:35;13.10;99.90
11615;DHT22;5863;52.832;4.758;2023-05-25T00:11:03;13.00;99.90
11615;DHT22;5863;52.832;4.758;2023-05-25T00:13:30;13.10;99.90
11615;DHT22;5863;52.832;4.758;2023-05-25T00:15:57;13.10;99.90
11615;DHT22;5863;52.832;4.758;2023-05-25T00:18:23;13.20;99.90
11615;DHT22;5863;52.832;4.758;2023-05-25T00:20:51;13.20;99.90
11615;DHT22;5863;52.832;4.758;2023-05-25T00:23:18;13.30;99.90
11615;DHT22;5863;52.832;4.758;2023-05-25T00:25:45;13.30;99.90
11615;DHT22;5863;52.832;4.758;2023-05-25T00:28:13;13.30;99.90
11615;DHT22;5863;52.832;4.758;2023-05-25T00:30:40;13.30;99.90
11615;DHT22;5863;52.832;4.758;2023-05-25T00:33:06;13.30;99.90
11615;DHT22;5863;52.832;4.758;2023-05-25T00:35:34;13.30;99.90
11615;DHT22;5863;52.832;4.758;2023-05-25T00:38:01;13.30;99.90
11615;DHT22;5863;52.832;4.758;2023-05-25T00:40:28;13.20;99.90
11615;DHT22;5863;52.832;4.758;2023-05-25T00:42:55;13.20;99.90
11615;DHT22;5863;52.832;4.758;2023-05-25T00:45:26;13.20;99.90
11615;DHT22;5863;52.832;4.758;2023-05-25T00:47:53;13.20;99.90
11615;DHT22;5863;52.832;4.758;2023-05-25T00:50:28;13.20;99.90
11615;DHT22;5863;52.832;4.758;2023-05-25T00:53:02;13.30;99.90
11615;DHT22;5863;52.832;4.758;2023-05-25T00:55:30;13.20;99.90
11615;DHT22;5863;52.832;4.758;2023-05-25T00:57:59;13.30;99.90
11615;DHT22;5863;52.832;4.758;2023-05-25T01:00:29;13.30;99.90
11615;DHT22;5863;52.832;4.758;2023-05-25T01:03:00;13.30;99.90
11615;DHT22;5863;52.832;4.758;2023-05-25T01:05:31;13.20;99.90
11615;DHT22;5863;52.832;4.758;2023-05-25T01:08:00;13.30;99.90
11615;DHT22;5863;52.832;4.758;2023-05-25T01:10:30;13.30;99.90
11615;DHT22;5863;52.832;4.758;2023-05-25T01:12:59;13.30;99.90
11615;DHT22;5863;52.832;4.758;2023-05-25T01:15:29;13.40;99.90
11615;DHT22;5863;52.832;4.758;2023-05-25T01:17:56;13.40;99.90
11615;DHT22;5863;52.832;4.758;2023-05-25T01:20:24;13.30;99.90
11615;DHT22;5863;52.832;4.758;2023-05-25T01:22:56;13.30;99.90
11615;DHT22;5863;52.832;4.758;2023-05-25T01:25:27;13.20;99.90
11615;DHT22;5863;52.832;4.758;2023-05-25T01:27:57;13.20;99.90
11615;DHT22;5863;52.832;4.758;2023-05-25T01:30:27;13.30;99.90
11615;DHT22;5863;52.832;4.758;2023-05-25T01:32:56;13.30;99.90
11615;DHT22;5863;52.832;4.758;2023-05-25T01:35:23;13.30;99.90
11615;DHT22;5863;52.832;4.758;2023-05-25T01:37:51;13.30;99.90
11615;DHT22;5863;52.832;4.758;2023-05-25T01:40:19;13.30;99.90
11615;DHT22;5863;52.832;4.758;2023-05-25T01:42:45;13.30;99.90
11615;DHT22;5863;52.832;4.758;2023-05-25T01:45:13;13.20;99.90
11615;DHT22;5863;52.832;4.758;2023-05-25T01:47:45;13.30;99.90
11615;DHT22;5863;52.832;4.758;2023-05-25T01:50:21;13.30;99.90
11615;DHT22;5863;52.832;4.758;2023-05-25T01:52:55;13.30;99.90
11615;DHT22;5863;52.832;4.758;2023-05-25T01:55:25;13.30;99.90
11615;DHT22;5863;52.832;4.758;2023-05-25T01:57:55;13.20;99.90
11615;DHT22;5863;52.832;4.758;2023-05-25T02:00:23;13.20;99.90
11615;DHT22;5863;52.832;4.758;2023-05-25T02:02:51;13.10;99.90
11615;DHT22;5863;52.832;4.758;2023-05-25T02:05:19;13.10;99.90
11615;DHT22;5863;52.832;4.758;2023-05-25T02:07:46;13.10;99.90
11615;DHT22;5863;52.832;4.758;2023-05-25T02:10:12;13.20;99.90
11615;DHT22;5863;52.832;4.758;2023-05-25T02:12:40;13.10;99.90
11615;DHT22;5863;52.832;4.758;2023-05-25T02:15:08;13.10;99.90
11615;DHT22;5863;52.832;4.758;2023-05-25T02:17:34;13.00;99.90
11615;DHT22;5863;52.832;4.758;2023-05-25T02:20:01;13.00;99.90
11615;DHT22;5863;52.832;4.758;2023-05-25T02:22:29;13.00;99.90
11615;DHT22;5863;52.832;4.758;2023-05-25T02:24:55;12.90;99.90
11615;DHT22;5863;52.832;4.758;2023-05-25T02:27:22;12.90;99.90
11615;DHT22;5863;52.832;4.758;2023-05-25T02:29:50;12.90;99.90
11615;DHT22;5863;52.832;4.758;2023-05-25T02:32:17;12.90;99.90
11615;DHT22;5863;52.832;4.758;2023-05-25T02:34:44;12.90;99.90
11615;DHT22;5863;52.832;4.758;2023-05-25T02:37:11;12.90;99.90
11615;DHT22;5863;52.832;4.758;2023-05-25T02:39:38;12.90;99.90
11615;DHT22;5863;52.832;4.758;2023-05-25T02:42:05;12.90;99.90
11615;DHT22;5863;52.832;4.758;2023-05-25T02:44:32;12.90;99.90
11615;DHT22;5863;52.832;4.758;2023-05-25T02:47:00;12.80;99.90
11615;DHT22;5863;52.832;4.758;2023-05-25T02:49:26;12.80;99.90
11615;DHT22;5863;52.832;4.758;2023-05-25T02:51:54;12.70;99.90
11615;DHT22;5863;52.832;4.758;2023-05-25T02:54:21;12.70;99.90
11615;DHT22;5863;52.832;4.758;2023-05-25T02:56:48;12.70;99.90
11615;DHT22;5863;52.832;4.758;2023-05-25T02:59:14;12.70;99.90
11615;DHT22;5863;52.832;4.758;2023-05-25T03:01:41;12.70;99.90
11615;DHT22;5863;52.832;4.758;2023-05-25T03:04:09;12.60;99.90
11615;DHT22;5863;52.832;4.758;2023-05-25T03:06:36;12.60;99.90
11615;DHT22;5863;52.832;4.758;2023-05-25T03:09:02;12.60;99.90
11615;DHT22;5863;52.832;4.758;2023-05-25T03:11:30;12.60;99.90
11615;DHT22;5863;52.832;4.758;2023-05-25T03:13:57;12.60;99.90
11615;DHT22;5863;52.832;4.758;2023-05-25T03:16:23;12.60;99.90
11615;DHT22;5863;52.832;4.758;2023-05-25T03:18:51;12.60;99.90
11615;DHT22;5863;52.832;4.758;2023-05-25T03:21:19;12.60;99.90
11615;DHT22;5863;52.832;4.758;2023-05-25T03:23:46;12.60;99.90
11615;DHT22;5863;52.832;4.758;2023-05-25T03:26:13;12.50;99.90
11615;DHT22;5863;52.832;4.758;2023-05-25T03:28:40;12.60;99.90
11615;DHT22;5863;52.832;4.758;2023-05-25T03:31:06;12.60;99.90
11615;DHT22;5863;52.832;4.758;2023-05-25T03:33:33;12.60;99.90
11615;DHT22;5863;52.832;4.758;2023-05-25T03:36:00;12.60;99.90
11615;DHT22;5863;52.832;4.758;2023-05-25T03:38:28;12.40;99.90
11615;DHT22;5863;52.832;4.758;2023-05-25T03:40:55;12.60;99.90
11615;DHT22;5863;52.832;4.758;2023-05-25T03:43:21;12.50;99.90
11615;DHT22;5863;52.832;4.758;2023-05-25T03:45:48;12.50;99.90
11615;DHT22;5863;52.832;4.758;2023-05-25T03:48:15;12.50;99.90
11615;DHT22;5863;52.832;4.758;2023-05-25T03:50:41;12.50;99.90
11615;DHT22;5863;52.832;4.758;2023-05-25T03:53:08;12.60;99.90
11615;DHT22;5863;52.832;4.758;2023-05-25T03:55:36;12.60;99.90
11615;DHT22;5863;52.832;4.758;2023-05-25T03:58:02;12.60;99.90
11615;DHT22;5863;52.832;4.758;2023-05-25T04:00:29;12.60;99.90
11615;DHT22;5863;52.832;4.758;2023-05-25T04:02:56;12.60;99.90
11615;DHT22;5863;52.832;4.758;2023-05-25T04:05:26;12.60;99.90
11615;DHT22;5863;52.832;4.758;2023-05-25T04:07:52;12.60;99.90
11615;DHT22;5863;52.832;4.758;2023-05-25T04:10:20;12.60;99.90
11615;DHT22;5863;52.832;4.758;2023-05-25T04:12:48;12.60;99.90
11615;DHT22;5863;52.832;4.758;2023-05-25T04:15:16;12.60;99.90
11615;DHT22;5863;52.832;4.758;2023-05-25T04:17:42;12.60;99.90
11615;DHT22;5863;52.832;4.758;2023-05-25T04:20:10;12.70;99.90
11615;DHT22;5863;52.832;4.758;2023-05-25T04:22:36;12.70;99.90
11615;DHT22;5863;52.832;4.758;2023-05-25T04:25:04;12.80;99.90
11615;DHT22;5863;52.832;4.758;2023-05-25T04:27:31;12.90;99.90
11615;DHT22;5863;52.832;4.758;2023-05-25T04:29:59;13.00;99.90
11615;DHT22;5863;52.832;4.758;2023-05-25T04:32:27;13.10;99.90
11615;DHT22;5863;52.832;4.758;2023-05-25T04:34:54;13.20;99.90
11615;DHT22;5863;52.832;4.758;2023-05-25T04:37:21;13.30;99.90
11615;DHT22;5863;52.832;4.758;2023-05-25T04:39:47;13.40;99.90
11615;DHT22;5863;52.832;4.758;2023-05-25T04:42:14;13.50;99.90
11615;DHT22;5863;52.832;4.758;2023-05-25T04:44:41;13.60;99.90
11615;DHT22;5863;52.832;4.758;2023-05-25T04:47:09;13.70;99.90
11615;DHT22;5863;52.832;4.758;2023-05-25T04:49:36;14.00;99.90
11615;DHT22;5863;52.832;4.758;2023-05-25T04:52:03;14.20;99.90
11615;DHT22;5863;52.832;4.758;2023-05-25T04:54:30;14.50;99.90
11615;DHT22;5863;52.832;4.758;2023-05-25T04:56:57;14.60;99.90
11615;DHT22;5863;52.832;4.758;2023-05-25T04:59:23;14.60;99.90
11615;DHT22;5863;52.832;4.758;2023-05-25T05:01:50;14.50;99.90
11615;DHT22;5863;52.832;4.758;2023-05-25T05:04:18;14.70;99.90
11615;DHT22;5863;52.832;4.758;2023-05-25T05:06:45;14.70;99.90
11615;DHT22;5863;52.832;4.758;2023-05-25T05:09:11;14.70;99.90
11615;DHT22;5863;52.832;4.758;2023-05-25T05:11:38;15.00;99.90
11615;DHT22;5863;52.832;4.758;2023-05-25T05:14:05;15.50;99.90
11615;DHT22;5863;52.832;4.758;2023-05-25T05:16:31;16.10;99.90
11615;DHT22;5863;52.832;4.758;2023-05-25T05:18:59;16.60;99.90
11615;DHT22;5863;52.832;4.758;2023-05-25T05:21:27;16.90;99.90
11615;DHT22;5863;52.832;4.758;2023-05-25T05:23:54;16.70;99.90
11615;DHT22;5863;52.832;4.758;2023-05-25T05:26:21;16.30;99.90
11615;DHT22;5863;52.832;4.758;2023-05-25T05:28:48;16.00;99.90
11615;DHT22;5863;52.832;4.758;2023-05-25T05:31:16;15.70;99.90
11615;DHT22;5863;52.832;4.758;2023-05-25T05:33:44;15.50;99.90
11615;DHT22;5863;52.832;4.758;2023-05-25T05:36:10;15.40;99.90
11615;DHT22;5863;52.832;4.758;2023-05-25T05:38:38;15.30;99.90
11615;DHT22;5863;52.832;4.758;2023-05-25T05:41:05;15.20;99.90
11615;DHT22;5863;52.832;4.758;2023-05-25T05:43:38;15.20;99.90
11615;DHT22;5863;52.832;4.758;2023-05-25T05:46:06;15.20;99.90
11615;DHT22;5863;52.832;4.758;2023-05-25T05:48:33;15.20;99.90
11615;DHT22;5863;52.832;4.758;2023-05-25T05:51:00;15.20;99.90
11615;DHT22;5863;52.832;4.758;2023-05-25T05:53:26;15.20;99.90
11615;DHT22;5863;52.832;4.758;2023-05-25T05:55:54;15.30;99.90
11615;DHT22;5863;52.832;4.758;2023-05-25T05:58:23;15.60;99.90
11615;DHT22;5863;52.832;4.758;2023-05-25T06:00:51;16.20;99.90
11615;DHT22;5863;52.832;4.758;2023-05-25T06:03:19;16.80;99.90
11615;DHT22;5863;52.832;4.758;2023-05-25T06:05:46;17.00;99.90
11615;DHT22;5863;52.832;4.758;2023-05-25T06:08:13;17.60;99.90
11615;DHT22;5863;52.832;4.758;2023-05-25T06:10:40;17.70;99.90
11615;DHT22;5863;52.832;4.758;2023-05-25T06:13:08;17.50;99.90
11615;DHT22;5863;52.832;4.758;2023-05-25T06:15:35;17.10;99.90
11615;DHT22;5863;52.832;4.758;2023-05-25T06:18:01;16.80;99.90
11615;DHT22;5863;52.832;4.758;2023-05-25T06:20:28;16.50;99.90
11615;DHT22;5863;52.832;4.758;2023-05-25T06:22:55;16.30;99.90
11615;DHT22;5863;52.832;4.758;2023-05-25T06:25:21;16.10;99.90
11615;DHT22;5863;52.832;4.758;2023-05-25T06:27:48;15.80;99.90
11615;DHT22;5863;52.832;4.758;2023-05-25T06:30:16;15.60;99.90
11615;DHT22;5863;52.832;4.758;2023-05-25T06:32:43;15.40;99.90
11615;DHT22;5863;52.832;4.758;2023-05-25T06:35:10;15.20;99.90
11615;DHT22;5863;52.832;4.758;2023-05-25T06:37:44;15.20;99.90
11615;DHT22;5863;52.832;4.758;2023-05-25T06:40:11;15.00;99.90
11615;DHT22;5863;52.832;4.758;2023-05-25T06:42:38;15.00;99.90
11615;DHT22;5863;52.832;4.758;2023-05-25T06:45:05;14.80;99.90
11615;DHT22;5863;52.832;4.758;2023-05-25T06:47:34;14.80;99.90
11615;DHT22;5863;52.832;4.758;2023-05-25T06:50:01;14.80;99.90
11615;DHT22;5863;52.832;4.758;2023-05-25T06:52:28;14.80;99.90
11615;DHT22;5863;52.832;4.758;2023-05-25T06:54:55;14.80;99.90
11615;DHT22;5863;52.832;4.758;2023-05-25T06:57:21;14.80;99.90
11615;DHT22;5863;52.832;4.758;2023-05-25T06:59:48;14.70;99.90
11615;DHT22;5863;52.832;4.758;2023-05-25T07:02:15;14.80;99.90
11615;DHT22;5863;52.832;4.758;2023-05-25T07:04:44;14.80;99.90
11615;DHT22;5863;52.832;4.758;2023-05-25T07:07:11;14.80;99.90
11615;DHT22;5863;52.832;4.758;2023-05-25T07:09:38;14.80;99.90
11615;DHT22;5863;52.832;4.758;2023-05-25T07:12:06;14.80;99.90
11615;DHT22;5863;52.832;4.758;2023-05-25T07:14:34;14.80;99.90
11615;DHT22;5863;52.832;4.758;2023-05-25T07:17:00;14.90;99.90
11615;DHT22;5863;52.832;4.758;2023-05-25T07:19:27;14.90;99.90
11615;DHT22;5863;52.832;4.758;2023-05-25T07:21:55;14.90;99.90
11615;DHT22;5863;52.832;4.758;2023-05-25T07:24:22;15.00;99.90
11615;DHT22;5863;52.832;4.758;2023-05-25T07:26:48;15.10;99.90
11615;DHT22;5863;52.832;4.758;2023-05-25T07:29:15;15.20;99.90
11615;DHT22;5863;52.832;4.758;2023-05-25T07:31:42;15.30;99.90
11615;DHT22;5863;52.832;4.758;2023-05-25T07:34:09;15.30;99.90
11615;DHT22;5863;52.832;4.758;2023-05-25T07:36:35;15.30;99.90
11615;DHT22;5863;52.832;4.758;2023-05-25T07:39:04;15.20;99.90
11615;DHT22;5863;52.832;4.758;2023-05-25T07:41:32;15.20;99.90
11615;DHT22;5863;52.832;4.758;2023-05-25T07:43:59;15.20;99.90
11615;DHT22;5863;52.832;4.758;2023-05-25T07:46:25;15.20;99.90
11615;DHT22;5863;52.832;4.758;2023-05-25T07:48:52;15.20;99.90
11615;DHT22;5863;52.832;4.758;2023-05-25T07:51:20;15.30;99.90
11615;DHT22;5863;52.832;4.758;2023-05-25T07:53:51;15.30;99.90
11615;DHT22;5863;52.832;4.758;2023-05-25T07:56:21;15.30;99.90
11615;DHT22;5863;52.832;4.758;2023-05-25T07:58:48;15.30;99.90
11615;DHT22;5863;52.832;4.758;2023-05-25T08:01:15;15.40;99.90
11615;DHT22;5863;52.832;4.758;2023-05-25T08:03:41;15.50;99.90
11615;DHT22;5863;52.832;4.758;2023-05-25T08:06:08;15.60;99.90
11615;DHT22;5863;52.832;4.758;2023-05-25T08:08:35;15.70;99.90
11615;DHT22;5863;52.832;4.758;2023-05-25T08:11:02;15.70;99.90
11615;DHT22;5863;52.832;4.758;2023-05-25T08:13:30;15.70;99.90
11615;DHT22;5863;52.832;4.758;2023-05-25T08:15:57;15.70;99.90
11615;DHT22;5863;52.832;4.758;2023-05-25T08:18:24;15.70;99.90
11615;DHT22;5863;52.832;4.758;2023-05-25T08:20:51;15.70;99.90
11615;DHT22;5863;52.832;4.758;2023-05-25T08:23:17;15.70;99.90
11615;DHT22;5863;52.832;4.758;2023-05-25T08:25:44;15.70;99.90
11615;DHT22;5863;52.832;4.758;2023-05-25T08:28:11;15.70;99.90
11615;DHT22;5863;52.832;4.758;2023-05-25T08:30:39;15.70;99.90
11615;DHT22;5863;52.832;4.758;2023-05-25T08:33:05;15.80;99.90
11615;DHT22;5863;52.832;4.758;2023-05-25T08:35:33;15.90;99.90
11615;DHT22;5863;52.832;4.758;2023-05-25T08:38:03;16.00;99.90
11615;DHT22;5863;52.832;4.758;2023-05-25T08:40:30;16.10;99.90
11615;DHT22;5863;52.832;4.758;2023-05-25T08:42:57;16.10;99.90
11615;DHT22;5863;52.832;4.758;2023-05-25T08:45:24;16.10;99.90
11615;DHT22;5863;52.832;4.758;2023-05-25T08:47:53;16.10;99.90
11615;DHT22;5863;52.832;4.758;2023-05-25T08:50:26;16.10;99.90
11615;DHT22;5863;52.832;4.758;2023-05-25T08:52:54;16.10;99.90
11615;DHT22;5863;52.832;4.758;2023-05-25T08:55:24;16.20;99.90
11615;DHT22;5863;52.832;4.758;2023-05-25T08:57:56;16.20;99.90
11615;DHT22;5863;52.832;4.758;2023-05-25T09:00:29;16.30;99.90
11615;DHT22;5863;52.832;4.758;2023-05-25T09:03:08;16.40;99.90
11615;DHT22;5863;52.832;4.758;2023-05-25T09:05:36;16.50;99.90
11615;DHT22;5863;52.832;4.758;2023-05-25T09:08:04;16.50;99.90
11615;DHT22;5863;52.832;4.758;2023-05-25T09:10:32;16.60;99.90
11615;DHT22;5863;52.832;4.758;2023-05-25T09:13:00;16.80;99.90
11615;DHT22;5863;52.832;4.758;2023-05-25T09:15:28;16.80;99.90
11615;DHT22;5863;52.832;4.758;2023-05-25T09:17:55;16.80;99.90
11615;DHT22;5863;52.832;4.758;2023-05-25T09:20:23;16.90;99.90
11615;DHT22;5863;52.832;4.758;2023-05-25T09:22:55;17.00;99.90
11615;DHT22;5863;52.832;4.758;2023-05-25T09:25:22;17.10;99.90
11615;DHT22;5863;52.832;4.758;2023-05-25T09:27:50;17.30;99.90
11615;DHT22;5863;52.832;4.758;2023-05-25T09:30:17;17.30;99.90
11615;DHT22;5863;52.832;4.758;2023-05-25T09:32:44;17.30;99.90
11615;DHT22;5863;52.832;4.758;2023-05-25T09:35:12;17.40;99.90
11615;DHT22;5863;52.832;4.758;2023-05-25T09:37:41;17.40;99.90
11615;DHT22;5863;52.832;4.758;2023-05-25T09:40:08;17.20;99.90
11615;DHT22;5863;52.832;4.758;2023-05-25T09:42:36;17.00;99.90
11615;DHT22;5863;52.832;4.758;2023-05-25T09:45:03;17.10;99.90
11615;DHT22;5863;52.832;4.758;2023-05-25T09:47:30;17.10;99.90
11615;DHT22;5863;52.832;4.758;2023-05-25T09:49:57;17.00;99.90
11615;DHT22;5863;52.832;4.758;2023-05-25T09:52:24;16.90;99.90
11615;DHT22;5863;52.832;4.758;2023-05-25T09:54:52;16.90;99.90
11615;DHT22;5863;52.832;4.758;2023-05-25T09:57:21;17.00;99.90
11615;DHT22;5863;52.832;4.758;2023-05-25T09:59:47;17.10;99.90
11615;DHT22;5863;52.832;4.758;2023-05-25T10:02:14;17.20;99.90
11615;DHT22;5863;52.832;4.758;2023-05-25T10:04:41;17.40;99.90
11615;DHT22;5863;52.832;4.758;2023-05-25T10:07:08;17.40;99.90
11615;DHT22;5863;52.832;4.758;2023-05-25T10:09:38;17.40;99.90
11615;DHT22;5863;52.832;4.758;2023-05-25T10:12:07;17.60;99.90
11615;DHT22;5863;52.832;4.758;2023-05-25T10:14:36;17.70;99.90
11615;DHT22;5863;52.832;4.758;2023-05-25T10:17:04;17.60;99.90
11615;DHT22;5863;52.832;4.758;2023-05-25T10:19:35;17.50;99.90
11615;DHT22;5863;52.832;4.758;2023-05-25T10:22:09;17.40;99.90
11615;DHT22;5863;52.832;4.758;2023-05-25T10:24:42;17.40;99.90
11615;DHT22;5863;52.832;4.758;2023-05-25T10:27:18;17.20;99.90
11615;DHT22;5863;52.832;4.758;2023-05-25T10:29:48;17.30;99.90
11615;DHT22;5863;52.832;4.758;2023-05-25T10:32:16;17.30;99.90
11615;DHT22;5863;52.832;4.758;2023-05-25T10:34:43;17.40;99.90
11615;DHT22;5863;52.832;4.758;2023-05-25T10:37:11;17.50;99.90
11615;DHT22;5863;52.832;4.758;2023-05-25T10:39:40;17.60;99.90
11615;DHT22;5863;52.832;4.758;2023-05-25T10:42:08;17.60;99.90
11615;DHT22;5863;52.832;4.758;2023-05-25T10:44:41;17.60;99.90
11615;DHT22;5863;52.832;4.758;2023-05-25T10:47:08;17.50;99.10
11615;DHT22;5863;52.832;4.758;2023-05-25T10:49:51;17.60;99.40
11615;DHT22;5863;52.832;4.758;2023-05-25T10:52:18;17.70;99.90
11615;DHT22;5863;52.832;4.758;2023-05-25T10:54:46;17.70;99.50
11615;DHT22;5863;52.832;4.758;2023-05-25T10:57:17;17.80;99.80
11615;DHT22;5863;52.832;4.758;2023-05-25T10:59:49;17.80;99.70
11615;DHT22;5863;52.832;4.758;2023-05-25T11:02:16;17.90;99.50
11615;DHT22;5863;52.832;4.758;2023-05-25T11:04:47;17.80;99.50
11615;DHT22;5863;52.832;4.758;2023-05-25T11:07:15;17.70;99.10
11615;DHT22;5863;52.832;4.758;2023-05-25T11:09:55;17.70;98.60
11615;DHT22;5863;52.832;4.758;2023-05-25T11:12:22;17.50;98.30
11615;DHT22;5863;52.832;4.758;2023-05-25T11:15:10;17.50;98.70
11615;DHT22;5863;52.832;4.758;2023-05-25T11:17:57;17.50;98.80
11615;DHT22;5863;52.832;4.758;2023-05-25T11:20:26;17.40;98.30
11615;DHT22;5863;52.832;4.758;2023-05-25T11:22:53;17.40;97.70
11615;DHT22;5863;52.832;4.758;2023-05-25T11:25:39;17.30;97.00
11615;DHT22;5863;52.832;4.758;2023-05-25T11:28:08;17.30;97.20
11615;DHT22;5863;52.832;4.758;2023-05-25T11:30:38;17.50;97.40
11615;DHT22;5863;52.832;4.758;2023-05-25T11:33:05;17.50;97.40
11615;DHT22;5863;52.832;4.758;2023-05-25T11:35:33;17.50;98.20
11615;DHT22;5863;52.832;4.758;2023-05-25T11:38:04;17.60;98.20
11615;DHT22;5863;52.832;4.758;2023-05-25T11:40:31;17.60;98.40
11615;DHT22;5863;52.832;4.758;2023-05-25T11:42:59;17.60;97.60
11615;DHT22;5863;52.832;4.758;2023-05-25T11:45:31;17.60;97.40
11615;DHT22;5863;52.832;4.758;2023-05-25T11:48:00;17.60;97.30
11615;DHT22;5863;52.832;4.758;2023-05-25T11:50:29;17.60;97.50
11615;DHT22;5863;52.832;4.758;2023-05-25T11:52:56;17.50;97.60
11615;DHT22;5863;52.832;4.758;2023-05-25T11:55:23;17.50;98.20
11615;DHT22;5863;52.832;4.758;2023-05-25T11:57:56;17.40;98.20
11615;DHT22;5863;52.832;4.758;2023-05-25T12:00:24;17.30;98.80
11615;DHT22;5863;52.832;4.758;2023-05-25T12:02:51;17.20;99.20
11615;DHT22;5863;52.832;4.758;2023-05-25T12:05:19;17.20;99.80
11615;DHT22;5863;52.832;4.758;2023-05-25T12:07:47;17.10;99.80
11615;DHT22;5863;52.832;4.758;2023-05-25T12:10:15;17.10;99.10
11615;DHT22;5863;52.832;4.758;2023-05-25T12:12:42;17.00;98.70
11615;DHT22;5863;52.832;4.758;2023-05-25T12:15:10;17.30;98.50
11615;DHT22;5863;52.832;4.758;2023-05-25T12:17:39;17.10;98.00
11615;DHT22;5863;52.832;4.758;2023-05-25T12:20:07;17.00;98.00
11615;DHT22;5863;52.832;4.758;2023-05-25T12:22:36;16.90;97.90
11615;DHT22;5863;52.832;4.758;2023-05-25T12:25:05;16.90;98.10
11615;DHT22;5863;52.832;4.758;2023-05-25T12:27:33;16.90;98.40
11615;DHT22;5863;52.832;4.758;2023-05-25T12:30:00;16.90;98.70
11615;DHT22;5863;52.832;4.758;2023-05-25T12:32:27;16.90;98.00
11615;DHT22;5863;52.832;4.758;2023-05-25T12:35:01;16.90;97.90
11615;DHT22;5863;52.832;4.758;2023-05-25T12:37:28;17.00;98.00
11615;DHT22;5863;52.832;4.758;2023-05-25T12:39:56;17.00;97.60
11615;DHT22;5863;52.832;4.758;2023-05-25T12:42:23;17.00;97.10
11615;DHT22;5863;52.832;4.758;2023-05-25T12:44:54;17.00;97.80
11615;DHT22;5863;52.832;4.758;2023-05-25T12:47:22;17.00;98.60
11615;DHT22;5863;52.832;4.758;2023-05-25T12:49:50;16.70;98.70
11615;DHT22;5863;52.832;4.758;2023-05-25T12:52:33;16.70;99.20
11615;DHT22;5863;52.832;4.758;2023-05-25T12:55:19;16.70;98.60
11615;DHT22;5863;52.832;4.758;2023-05-25T12:57:46;16.70;98.90
11615;DHT22;5863;52.832;4.758;2023-05-25T13:00:17;16.70;99.30
11615;DHT22;5863;52.832;4.758;2023-05-25T13:02:44;16.70;99.40
11615;DHT22;5863;52.832;4.758;2023-05-25T13:05:19;16.60;99.10
11615;DHT22;5863;52.832;4.758;2023-05-25T13:07:46;16.60;98.80
11615;DHT22;5863;52.832;4.758;2023-05-25T13:10:13;16.50;98.90
11615;DHT22;5863;52.832;4.758;2023-05-25T13:12:43;16.40;98.40
11615;DHT22;5863;52.832;4.758;2023-05-25T13:15:10;16.30;98.30
11615;DHT22;5863;52.832;4.758;2023-05-25T13:17:39;16.40;98.80
11615;DHT22;5863;52.832;4.758;2023-05-25T13:20:06;16.50;99.30
11615;DHT22;5863;52.832;4.758;2023-05-25T13:22:33;16.40;99.20
11615;DHT22;5863;52.832;4.758;2023-05-25T13:25:00;16.40;99.00
11615;DHT22;5863;52.832;4.758;2023-05-25T13:27:27;16.40;99.60
11615;DHT22;5863;52.832;4.758;2023-05-25T13:29:56;16.40;98.60
11615;DHT22;5863;52.832;4.758;2023-05-25T13:32:23;16.30;98.70
11615;DHT22;5863;52.832;4.758;2023-05-25T13:34:50;16.30;98.80
11615;DHT22;5863;52.832;4.758;2023-05-25T13:37:18;16.40;99.00
11615;DHT22;5863;52.832;4.758;2023-05-25T13:39:45;16.40;99.60
11615;DHT22;5863;52.832;4.758;2023-05-25T13:42:11;16.40;99.20
11615;DHT22;5863;52.832;4.758;2023-05-25T13:44:38;16.30;99.00
11615;DHT22;5863;52.832;4.758;2023-05-25T13:47:06;16.40;99.00
11615;DHT22;5863;52.832;4.758;2023-05-25T13:49:33;16.40;99.20
11615;DHT22;5863;52.832;4.758;2023-05-25T13:51:59;16.40;99.40
11615;DHT22;5863;52.832;4.758;2023-05-25T13:54:26;16.30;99.20
11615;DHT22;5863;52.832;4.758;2023-05-25T13:56:53;16.20;99.20
11615;DHT22;5863;52.832;4.758;2023-05-25T13:59:19;16.20;98.90
11615;DHT22;5863;52.832;4.758;2023-05-25T14:01:46;16.10;98.90
11615;DHT22;5863;52.832;4.758;2023-05-25T14:04:14;16.20;99.20
11615;DHT22;5863;52.832;4.758;2023-05-25T14:06:42;16.30;99.50
11615;DHT22;5863;52.832;4.758;2023-05-25T14:09:09;16.20;99.30
11615;DHT22;5863;52.832;4.758;2023-05-25T14:11:36;16.20;99.70
11615;DHT22;5863;52.832;4.758;2023-05-25T14:14:02;16.20;99.10
11615;DHT22;5863;52.832;4.758;2023-05-25T14:16:31;16.20;98.90
11615;DHT22;5863;52.832;4.758;2023-05-25T14:18:58;16.30;98.80
11615;DHT22;5863;52.832;4.758;2023-05-25T14:21:26;16.20;98.60
11615;DHT22;5863;52.832;4.758;2023-05-25T14:23:54;16.20;99.10
11615;DHT22;5863;52.832;4.758;2023-05-25T14:26:20;16.30;99.40
11615;DHT22;5863;52.832;4.758;2023-05-25T14:28:47;16.20;99.00
11615;DHT22;5863;52.832;4.758;2023-05-25T14:31:14;16.20;98.40
11615;DHT22;5863;52.832;4.758;2023-05-25T14:33:40;16.30;98.40
11615;DHT22;5863;52.832;4.758;2023-05-25T14:36:07;16.30;98.80
11615;DHT22;5863;52.832;4.758;2023-05-25T14:38:35;16.30;98.80
11615;DHT22;5863;52.832;4.758;2023-05-25T14:41:02;16.30;98.80
11615;DHT22;5863;52.832;4.758;2023-05-25T14:43:34;16.30;99.20
11615;DHT22;5863;52.832;4.758;2023-05-25T14:46:01;16.20;99.00
11615;DHT22;5863;52.832;4.758;2023-05-25T14:48:28;16.10;99.30
11615;DHT22;5863;52.832;4.758;2023-05-25T14:50:54;16.00;99.20
11615;DHT22;5863;52.832;4.758;2023-05-25T14:53:23;16.00;99.10
11615;DHT22;5863;52.832;4.758;2023-05-25T14:55:51;16.10;98.90
11615;DHT22;5863;52.832;4.758;2023-05-25T14:58:18;16.10;98.90
11615;DHT22;5863;52.832;4.758;2023-05-25T15:00:45;16.10;98.60
11615;DHT22;5863;52.832;4.758;2023-05-25T15:03:11;16.10;98.30
11615;DHT22;5863;52.832;4.758;2023-05-25T15:05:38;16.10;98.50
11615;DHT22;5863;52.832;4.758;2023-05-25T15:08:05;16.10;98.80
11615;DHT22;5863;52.832;4.758;2023-05-25T15:10:32;16.10;99.10
11615;DHT22;5863;52.832;4.758;2023-05-25T15:12:59;16.10;99.00
11615;DHT22;5863;52.832;4.758;2023-05-25T15:15:27;16.00;99.10
11615;DHT22;5863;52.832;4.758;2023-05-25T15:17:53;15.80;98.80
11615;DHT22;5863;52.832;4.758;2023-05-25T15:20:20;15.70;99.40
11615;DHT22;5863;52.832;4.758;2023-05-25T15:22:46;15.70;99.60
11615;DHT22;5863;52.832;4.758;2023-05-25T15:25:15;15.70;99.60
11615;DHT22;5863;52.832;4.758;2023-05-25T15:27:42;15.50;99.70
11615;DHT22;5863;52.832;4.758;2023-05-25T15:30:11;15.50;99.90
11615;DHT22;5863;52.832;4.758;2023-05-25T15:32:37;15.50;99.80
11615;DHT22;5863;52.832;4.758;2023-05-25T15:35:05;15.50;99.10
11615;DHT22;5863;52.832;4.758;2023-05-25T15:37:32;15.60;99.00
11615;DHT22;5863;52.832;4.758;2023-05-25T15:39:59;15.70;98.70
11615;DHT22;5863;52.832;4.758;2023-05-25T15:42:26;15.70;98.60
11615;DHT22;5863;52.832;4.758;2023-05-25T15:44:52;15.70;98.50
11615;DHT22;5863;52.832;4.758;2023-05-25T15:47:21;15.50;98.70
11615;DHT22;5863;52.832;4.758;2023-05-25T15:49:47;15.50;98.70